x

Pensacola - 115nm Ese Of Pensacola, Fl (42039) Wave Buoy

2:50am - Thu 30th Mar 2017 All times are CDT. -5 hours from GMT.

  • Sig Wave height 2.0ft
  • Swell Direction
  • Peak Period 5s
  • Average Period 4s
  • Wind
    13mph, 16mph gusts
  • Sea Temp 73°f
  • Air Temp 72°f
  • Sea Pressure 1013.5mb
  • Pensacola - 115nm Ese Of Pensacola, Fl
  • Pensacola - 115nm Ese Of Pensacola, Fl

More Historic Weather Station data

Upgrade to MSW Pro to gain access to the past 30 days of data for over 8000 Wavebouys and Weather Stations around the globe.

Join Pro

Comparision Forecast

View Surf forecast
   
Thu 03/30 2:50am 2ft 5s 4s 13 16 mph 1013.5mb 73f 72f
1:50am 2ft 5s 4s 13 16 mph 1014.1mb 73f 72f
12:50am 2.5ft 5s 4s 13 16 mph 1014.7mb 73f 72f
Wed 03/29 11:50pm 2.5ft 6s 4s 16 18 mph 1015mb 73f 72f
10:50pm 2ft 5s 4s 16 18 mph 1015.5mb 73f 72f
9:50pm 2ft 5s 4s 13 16 mph 1016.1mb 73f 73f
8:50pm 2ft 5s 4s 13
mph
1016.1mb 73f 73f
7:50pm 2ft 5s 4s 11 13 mph 1016mb 73f 73f
6:50pm 2ft 5s 4s 11
mph
1015.9mb 73f 73f
5:50pm 2ft 4s 4s 7 9 mph 1016.2mb 73f 74f
4:50pm 1.6ft 3s 4s 4 7 mph 1016.4mb 73f 74f
3:50pm 2ft 3s 4s 9
mph
1016.5mb 73f 74f
2:50pm 2ft 5s 4s 9 11 mph 1016.9mb 73f 73f
1:50pm 2ft 3s 3s 11 16 mph 1016.7mb 73f 73f
12:50pm 1.6ft 4s 3s 11 13 mph 1017.1mb 73f 73f
11:50am 1.6ft 3s 3s 11 13 mph 1017.6mb 73f 73f
10:50am 1.6ft 6s 4s 11 13 mph 1017.9mb 72f 73f
9:50am 1.6ft 6s 4s 11 13 mph 1017.1mb 72f 73f
8:50am 1.3ft 6s 4s 11 13 mph 1016.6mb 72f 73f
7:50am 1.3ft 5s 4s 11
mph
1015.9mb 72f 72f
6:50am 1.3ft 5s 4s 9 11 mph 1015.3mb 72f 72f
5:50am 1.3ft 5s 4s 9 11 mph 1014.7mb 72f 72f
4:50am 1.3ft 5s 4s 7 9 mph 1014.9mb 72f 71f
3:50am 1.6ft 5s 5s 7
mph
1015mb 72f 72f
2:50am 1.6ft 6s 4s 7
mph
1015.2mb 72f 72f
1:50am 1.6ft 5s 4s 7
mph
1016mb 72f 72f
12:50am 1.6ft 6s 5s 4
mph
1016.5mb 72f 72f
Tue 03/28 11:50pm 1.6ft 6s 4s 4 7 mph 1016.8mb 72f 72f
10:50pm 1.6ft 6s 5s 7
mph
1016.9mb 72f 72f
9:50pm 1.6ft 6s 5s 7 9 mph 1017.1mb 72f 72f
8:50pm 1.6ft 6s 5s 9 11 mph 1016.7mb 73f 72f
7:50pm 1.6ft 6s 4s 9
mph
1016.2mb 73f 73f
6:50pm 1.6ft 6s 4s 9
mph
1016.3mb 73f 73f
5:50pm 1.6ft 6s 4s 4
mph
1016.2mb 73f 74f
4:50pm 1.6ft 6s 4s 4 7 mph 1016.4mb 73f 73f
3:50pm 1.6ft 7s 4s 7
mph
1016.7mb 73f 73f
2:50pm 2ft 6s 4s 9
mph
1017.2mb 73f 73f
1:50pm 2ft 6s 4s 9 11 mph 1017.7mb 73f 73f
12:50pm 1.6ft 6s 4s 11 13 mph 1018.1mb 73f 73f
9:50am 2ft 7s 5s 9 11 mph 1018.5mb 72f 73f
8:50am 2.5ft 7s 5s 4 7 mph 1018mb 72f 73f
7:50am 2ft 6s 5s 7
mph
1017.4mb 72f 73f
6:50am 2ft 6s 5s 4 7 mph 1016.8mb 71f 72f
5:50am 2ft 5s 5s 4 7 mph 1016.3mb 71f 72f
4:50am 2ft 5s 4s 7
mph
1015.8mb 71f 72f
3:50am 2ft 5s 4s 7 9 mph 1015.8mb 71f 72f
2:50am 2ft 5s 4s 7 9 mph 1016.1mb 71f 72f
1:50am 1.6ft 5s 4s 11 13 mph 1016.2mb 71f 72f
12:50am 1.6ft 6s 4s 9 11 mph 1016.6mb 71f 72f
Mon 03/27 11:50pm 1.6ft 5s 4s 9 11 mph 1016.9mb 71f 72f
10:50pm 1.6ft 5s 4s 7 9 mph 1017.4mb 72f 72f
9:50pm 2ft 4s 4s 9
mph
1017.2mb 72f 72f
8:50pm 2ft 5s 4s 9
mph
1016.7mb 72f 72f
7:50pm 2ft 6s 4s 9 11 mph 1016.4mb 72f 72f
6:50pm 2ft 4s 4s 9 11 mph 1016.2mb 72f 73f
5:50pm 2ft 4s 4s 11
mph
1016mb 72f 73f
4:50pm 2ft 5s 4s 11 16 mph 1016.2mb 72f 73f
3:50pm 2ft 5s 4s 11 13 mph 1016.7mb 72f 73f
2:50pm 2.5ft 6s 4s 11 13 mph 1017.3mb 72f 73f
1:50pm 2ft 6s 4s 13
mph
1017.8mb 72f 72f
12:50pm 2.5ft 5s 4s 13 16 mph 1018.4mb 72f 72f
11:50am 2ft 6s 4s 13 16 mph 1019.2mb 72f 72f
10:50am 2ft 6s 4s 11 13 mph 1019.7mb 71f 72f
9:50am 2ft 5s 4s 11 13 mph 1019.9mb 71f 72f
8:50am 2.5ft 7s 4s 11 13 mph 1019.8mb 71f 72f
7:50am 2.5ft 7s 5s 9 11 mph 1018.9mb 71f 72f
6:50am 2.5ft 7s 4s 11
mph
1018.3mb 71f 71f
5:50am 2.5ft 8s 4s 11 13 mph 1017.5mb 71f 71f
4:50am 2.5ft 8s 5s 9 11 mph 1016.8mb 71f 71f
3:50am 2.5ft 7s 5s 9 13 mph 1016.4mb 71f 70f
2:50am 2.5ft 6s 5s 7 9 mph 1016.7mb 71f 71f
1:50am 2.5ft 7s 5s 9
mph
1017.3mb 71f 71f
12:50am 2.5ft 6s 5s 9
mph
1017.9mb 71f 71f
Sun 03/26 11:50pm 2.5ft 6s 5s 9 11 mph 1018.4mb 71f 71f
10:50pm 2.5ft 5s 5s 11 13 mph 1018.5mb 71f 71f
9:50pm 2.5ft 8s 5s 11 13 mph 1018.8mb 71f 71f
8:50pm 2.5ft 7s 5s 11
mph
1018.9mb 71f 72f
7:50pm 2.5ft 7s 5s 11 13 mph 1018.7mb 71f 72f
6:50pm 2.5ft 5s 5s 11 13 mph 1018.5mb 71f 72f
5:50pm 3ft 6s 5s 9 11 mph 1018.5mb 71f 73f
4:50pm 3ft 5s 5s 9 11 mph 1018.4mb 71f 73f
3:50pm 3ft 5s 5s 11 13 mph 1018.8mb 72f 73f
2:50pm 3.5ft 6s 5s 11
mph
1019mb 71f 72f
1:50pm 3ft 8s 5s 9 11 mph 1019.3mb 71f 72f
12:50pm 3.5ft 8s 5s 11 13 mph 1019.6mb 71f 72f
11:50am 3.5ft 6s 4s 11 16 mph 1019.8mb 71f 72f
10:50am 3ft 7s 4s 13 18 mph 1019.8mb 71f 72f
9:50am 3ft 6s 4s 16 18 mph 1019.4mb 71f 71f